Time;durP1;ratioP1;P1;durP2;ratioP2;P2;SDS_P1;SDS_P2;PMS_P1;PMS_P2;Temp;Humidity;BMP_temperature;BMP_pressure;BME280_temperature;BME280_humidity;BME280_pressure;Samples;Min_cycle;Max_cycle;Signal;HPM_P1;HPM_P2
2023/09/04 00:00:28;;;;;;;4.87;3.10;;;20.00;94.60;;;;;;10485963;28;20933;-66
2023/09/04 00:05:32;;;;;;;4.53;3.10;;;20.00;94.60;;;;;;10485955;28;20416;-65
2023/09/04 00:10:33;;;;;;;3.90;3.20;;;20.00;94.60;;;;;;10482040;28;20392;-67
2023/09/04 00:15:34;;;;;;;3.50;3.20;;;19.90;94.60;;;;;;10479529;28;20386;-67
2023/09/04 00:20:34;;;;;;;4.17;3.30;;;19.90;94.50;;;;;;10484514;28;20907;-66
2023/09/04 00:25:35;;;;;;;4.50;3.50;;;19.90;94.50;;;;;;10489505;28;20414;-66
2023/09/04 00:30:36;;;;;;;4.47;3.30;;;19.90;94.50;;;;;;10493653;28;20393;-65
2023/09/04 00:35:36;;;;;;;4.75;3.70;;;19.90;94.50;;;;;;10492374;28;20398;-64
2023/09/04 00:40:37;;;;;;;4.07;3.28;;;19.80;94.50;;;;;;10489073;28;20437;-66
2023/09/04 00:45:38;;;;;;;4.70;3.83;;;19.80;94.40;;;;;;10491284;28;21064;-66
2023/09/04 00:50:42;;;;;;;3.88;3.45;;;19.80;94.40;;;;;;10492869;28;20417;-66
2023/09/04 00:55:43;;;;;;;4.13;3.60;;;19.70;94.30;;;;;;10482621;28;20495;-65
2023/09/04 01:00:45;;;;;;;4.87;3.90;;;19.70;94.30;;;;;;10480097;28;20402;-66
2023/09/04 01:05:45;;;;;;;4.30;3.80;;;19.70;94.20;;;;;;10489462;28;20489;-65
2023/09/04 01:11:05;;;;;;;4.87;3.40;;;19.60;94.20;;;;;;10482565;28;20410;-66
2023/09/04 01:16:06;;;;;;;3.97;3.35;;;19.60;94.20;;;;;;10481786;28;20434;-66
2023/09/04 01:21:07;;;;;;;4.00;3.33;;;19.60;94.20;;;;;;10481985;28;20423;-65
2023/09/04 01:26:36;;;;;;;4.13;3.47;;;19.60;94.40;;;;;;10484130;28;20406;-65
2023/09/04 01:31:46;;;;;;;4.63;3.42;;;19.50;94.10;;;;;;10479491;28;20477;-66
2023/09/04 01:36:51;;;;;;;4.15;3.42;;;19.50;94.10;;;;;;10478704;28;21134;-66
2023/09/04 01:41:51;;;;;;;4.07;3.27;;;19.50;94.10;;;;;;10484654;28;20387;-66
2023/09/04 01:46:52;;;;;;;3.97;3.17;;;19.50;94.10;;;;;;10482064;28;20916;-66
2023/09/04 01:51:53;;;;;;;3.45;3.10;;;19.40;94.10;;;;;;10480792;28;20391;-66
2023/09/04 01:56:54;;;;;;;3.80;3.17;;;19.40;94.00;;;;;;10486075;28;20911;-66
2023/09/04 02:01:54;;;;;;;4.60;3.57;;;19.40;94.00;;;;;;10481581;28;20405;-65
2023/09/04 02:06:55;;;;;;;3.90;3.50;;;19.40;94.20;;;;;;10487370;28;20455;-65
2023/09/04 02:11:56;;;;;;;3.65;3.35;;;19.50;94.00;;;;;;10484245;28;20406;-66
2023/09/04 02:16:56;;;;;;;3.80;3.40;;;19.30;94.00;;;;;;10484672;28;20448;-66
2023/09/04 02:21:57;;;;;;;4.33;3.67;;;19.40;94.00;;;;;;10488578;28;20418;-66
2023/09/04 02:26:58;;;;;;;4.37;3.50;;;19.30;94.00;;;;;;10488170;28;20393;-67
2023/09/04 02:31:58;;;;;;;3.70;3.30;;;19.30;94.00;;;;;;10489555;28;20413;-65
2023/09/04 02:36:59;;;;;;;4.03;3.63;;;19.20;94.00;;;;;;10488106;28;20926;-66
2023/09/04 02:41:59;;;;;;;4.30;3.70;;;19.20;93.90;;;;;;10485453;28;20494;-66
2023/09/04 02:47:00;;;;;;;3.70;3.40;;;19.20;93.90;;;;;;10490084;28;20413;-66
2023/09/04 02:52:01;;;;;;;4.07;3.57;;;19.20;93.90;;;;;;10484884;28;20925;-66
2023/09/04 02:57:01;;;;;;;4.77;3.57;;;19.20;93.90;;;;;;10482418;28;20447;-66
2023/09/04 03:02:02;;;;;;;4.85;3.50;;;19.10;93.80;;;;;;10492960;28;20892;-66
2023/09/04 03:07:03;;;;;;;4.03;3.60;;;19.10;93.80;;;;;;10494437;28;20413;-66
2023/09/04 03:12:04;;;;;;;4.80;3.57;;;19.10;93.80;;;;;;10496759;28;20544;-66
2023/09/04 03:17:04;;;;;;;3.80;3.40;;;19.10;93.80;;;;;;10493863;28;20411;-67
2023/09/04 03:22:05;;;;;;;4.17;3.60;;;19.10;93.80;;;;;;10495090;28;20641;-65
2023/09/04 03:27:05;;;;;;;4.33;3.90;;;19.10;93.80;;;;;;10496326;28;20452;-66
2023/09/04 03:32:07;;;;;;;4.47;3.70;;;19.00;93.70;;;;;;10494758;28;20409;-65
2023/09/04 03:37:07;;;;;;;5.23;3.73;;;19.00;93.70;;;;;;10498781;28;20565;-65
2023/09/04 03:42:08;;;;;;;4.40;3.90;;;19.00;93.70;;;;;;10502655;28;20451;-66
2023/09/04 03:47:09;;;;;;;4.00;3.60;;;18.90;93.60;;;;;;10499821;28;20522;-67
2023/09/04 03:52:10;;;;;;;4.20;3.80;;;18.90;93.60;;;;;;10495617;28;20829;-65
2023/09/04 03:57:12;;;;;;;4.43;3.58;;;18.90;93.60;;;;;;10487357;28;20474;-66
2023/09/04 04:02:14;;;;;;;4.20;3.80;;;19.10;93.60;;;;;;10492215;28;20438;-65
2023/09/04 04:07:14;;;;;;;4.22;3.72;;;18.90;93.50;;;;;;10498314;28;20409;-65
2023/09/04 04:12:15;;;;;;;4.47;3.77;;;18.90;93.50;;;;;;10480185;28;20402;-66
2023/09/04 04:17:15;;;;;;;4.30;3.73;;;18.90;93.50;;;;;;10499995;28;20473;-66
2023/09/04 04:22:16;;;;;;;4.10;3.70;;;18.80;93.40;;;;;;10498032;28;20404;-67
2023/09/04 04:27:17;;;;;;;5.30;4.00;;;18.80;93.40;;;;;;10493065;28;20410;-65
2023/09/04 04:32:18;;;;;;;4.97;3.92;;;18.70;93.30;;;;;;10491869;28;20468;-67
2023/09/04 04:37:18;;;;;;;5.33;4.00;;;18.70;93.30;;;;;;10497692;28;20477;-66
2023/09/04 04:42:19;;;;;;;4.53;3.83;;;18.70;93.30;;;;;;10501009;28;20400;-66
2023/09/04 04:47:20;;;;;;;4.20;3.67;;;18.70;93.30;;;;;;10494638;28;20404;-66
2023/09/04 04:52:20;;;;;;;4.35;3.88;;;18.70;93.30;;;;;;10498773;28;20394;-66
2023/09/04 04:57:21;;;;;;;5.38;3.95;;;18.70;93.20;;;;;;10502010;28;20415;-65
2023/09/04 05:02:22;;;;;;;6.00;4.13;;;18.70;93.20;;;;;;10495332;28;20906;-66
2023/09/04 05:07:22;;;;;;;4.20;3.77;;;18.60;93.20;;;;;;10490154;28;20442;-66
2023/09/04 05:12:23;;;;;;;4.13;3.73;;;18.60;93.10;;;;;;10482778;28;20441;-66
2023/09/04 05:17:24;;;;;;;4.22;3.70;;;18.60;93.10;;;;;;10481364;28;20407;-66
2023/09/04 05:22:26;;;;;;;4.50;3.90;;;18.50;93.10;;;;;;10481157;28;20397;-66
2023/09/04 05:27:26;;;;;;;4.15;3.70;;;18.60;93.10;;;;;;10481089;28;20721;-66
2023/09/04 05:32:27;;;;;;;4.53;3.63;;;18.60;93.10;;;;;;10488475;28;20409;-66
2023/09/04 05:37:28;;;;;;;6.00;3.93;;;18.60;93.20;;;;;;10488054;28;20420;-66
2023/09/04 05:42:28;;;;;;;4.10;3.70;;;18.50;93.20;;;;;;10480980;28;20407;-66
2023/09/04 05:47:29;;;;;;;4.40;3.70;;;18.50;93.20;;;;;;10483609;28;20403;-66
2023/09/04 05:52:29;;;;;;;4.30;3.87;;;18.50;93.20;;;;;;10490703;28;20428;-66
2023/09/04 05:57:30;;;;;;;4.18;3.78;;;18.60;93.20;;;;;;10492391;28;20913;-65
2023/09/04 06:02:31;;;;;;;4.55;4.15;;;18.50;93.20;;;;;;10473684;28;20455;-66
2023/09/04 06:07:32;;;;;;;4.37;3.87;;;18.50;93.20;;;;;;10481514;28;20415;-67
2023/09/04 06:12:32;;;;;;;4.60;4.03;;;18.50;93.30;;;;;;10479884;28;20397;-67
2023/09/04 06:17:33;;;;;;;4.25;3.80;;;18.50;93.30;;;;;;10482702;28;20403;-70
2023/09/04 06:22:34;;;;;;;5.93;4.72;;;18.40;93.50;;;;;;10485474;28;20406;-67
2023/09/04 06:27:34;;;;;;;5.13;4.47;;;18.50;93.60;;;;;;10489021;28;20819;-66
2023/09/04 06:32:35;;;;;;;4.97;4.37;;;18.40;93.60;;;;;;10488816;28;20751;-66
2023/09/04 06:37:35;;;;;;;4.83;4.20;;;18.50;93.60;;;;;;10475945;28;20442;-66
2023/09/04 06:42:36;;;;;;;4.67;4.20;;;18.40;93.60;;;;;;10487505;28;20423;-67
2023/09/04 06:47:38;;;;;;;4.53;3.90;;;18.50;93.60;;;;;;10493769;28;20492;-67
2023/09/04 06:52:38;;;;;;;5.05;4.53;;;18.10;93.60;;;;;;10497714;28;20490;-67
2023/09/04 06:57:39;;;;;;;4.93;4.22;;;18.50;93.80;;;;;;10490824;28;20422;-65
2023/09/04 07:02:40;;;;;;;5.63;4.73;;;18.50;93.80;;;;;;10495448;28;20399;-65
2023/09/04 07:07:40;;;;;;;5.43;4.67;;;18.50;93.90;;;;;;10489957;28;20456;-67
2023/09/04 07:12:41;;;;;;;4.90;4.40;;;18.60;94.20;;;;;;10490009;28;20405;-67
2023/09/04 07:17:42;;;;;;;5.07;4.30;;;18.60;93.90;;;;;;10500865;28;20411;-67
2023/09/04 07:22:43;;;;;;;5.13;4.40;;;18.70;94.00;;;;;;10493709;28;20397;-66
2023/09/04 07:27:44;;;;;;;5.63;4.33;;;18.80;94.00;;;;;;10486899;28;20422;-66
2023/09/04 07:32:44;;;;;;;4.63;4.13;;;18.80;94.00;;;;;;10494794;28;20405;-68
2023/09/04 07:37:45;;;;;;;4.72;4.20;;;18.80;94.00;;;;;;10490684;28;20446;-67
2023/09/04 07:42:46;;;;;;;4.73;4.23;;;18.90;94.10;;;;;;10480279;28;20621;-67
2023/09/04 07:47:48;;;;;;;5.27;4.47;;;18.90;94.10;;;;;;10488197;28;20412;-67
2023/09/04 07:52:48;;;;;;;4.97;4.05;;;19.00;94.10;;;;;;10492402;28;20435;-67
2023/09/04 07:57:49;;;;;;;5.95;4.53;;;19.00;94.00;;;;;;10490070;28;20480;-67
2023/09/04 08:02:50;;;;;;;5.10;4.50;;;19.00;94.10;;;;;;10495637;28;20399;-67
2023/09/04 08:07:50;;;;;;;4.70;4.20;;;19.10;94.10;;;;;;10498680;28;20448;-67
2023/09/04 08:12:51;;;;;;;4.77;3.97;;;19.10;94.00;;;;;;10489554;28;20411;-67
2023/09/04 08:17:52;;;;;;;4.53;4.07;;;19.10;94.10;;;;;;10491824;28;20412;-67
2023/09/04 08:22:52;;;;;;;5.40;4.10;;;19.10;94.30;;;;;;10490574;28;20481;-68
2023/09/04 08:27:53;;;;;;;8.02;5.90;;;19.20;94.10;;;;;;10487637;28;20970;-69
2023/09/04 08:32:54;;;;;;;8.77;5.95;;;19.20;96.00;;;;;;10496292;28;20808;-68
2023/09/04 08:38:04;;;;;;;7.85;5.60;;;19.10;96.40;;;;;;10493467;28;20407;-69
2023/09/04 08:43:06;;;;;;;8.10;5.68;;;19.10;96.50;;;;;;10488203;28;20490;-69
2023/09/04 08:48:08;;;;;;;8.07;6.18;;;19.20;96.80;;;;;;10499123;28;20869;-68
2023/09/04 08:53:09;;;;;;;8.27;6.20;;;19.20;97.10;;;;;;10483276;28;20403;-68
2023/09/04 08:58:10;;;;;;;8.03;6.07;;;19.30;96.70;;;;;;10490498;28;20419;-69
2023/09/04 09:03:11;;;;;;;7.55;5.50;;;19.40;96.60;;;;;;10489513;28;20402;-68
2023/09/04 09:08:12;;;;;;;6.38;5.20;;;19.40;96.80;;;;;;10478980;28;20511;-68
2023/09/04 09:13:14;;;;;;;8.50;5.50;;;19.50;96.80;;;;;;10484652;28;21162;-69
2023/09/04 09:18:38;;;;;;;7.40;5.00;;;19.60;96.60;;;;;;10487475;28;20427;-68
2023/09/04 09:23:38;;;;;;;8.27;5.30;;;19.60;96.40;;;;;;10488181;28;20427;-69
2023/09/04 09:28:42;;;;;;;7.00;5.10;;;19.80;96.20;;;;;;10479137;28;20507;-70
2023/09/04 09:33:43;;;;;;;6.10;4.70;;;19.90;95.90;;;;;;10487688;28;20945;-70
2023/09/04 09:38:45;;;;;;;7.03;4.70;;;19.90;95.60;;;;;;10485645;28;20413;-70
2023/09/04 09:43:45;;;;;;;6.85;4.80;;;20.00;96.40;;;;;;10476326;28;20409;-70
2023/09/04 09:48:48;;;;;;;6.57;4.40;;;20.20;96.10;;;;;;10477980;28;20904;-70
2023/09/04 09:53:50;;;;;;;4.78;3.78;;;20.30;96.00;;;;;;10480027;28;20406;-69
2023/09/04 09:58:51;;;;;;;6.80;3.80;;;20.30;95.40;;;;;;10476477;28;20414;-70
2023/09/04 10:03:53;;;;;;;5.28;3.63;;;20.40;94.80;;;;;;10483910;28;20393;-69
2023/09/04 10:08:54;;;;;;;5.10;3.40;;;20.50;95.00;;;;;;10481182;28;20399;-70
2023/09/04 10:14:09;;;;;;;5.75;3.67;;;20.60;95.00;;;;;;10474077;28;20507;-70
2023/09/04 10:19:11;;;;;;;5.20;3.30;;;20.80;95.40;;;;;;10493313;28;20803;-69
2023/09/04 10:24:20;;;;;;;6.72;3.80;;;21.00;95.20;;;;;;10476467;28;20491;-70
2023/09/04 10:29:26;;;;;;;4.85;4.03;;;21.10;94.70;;;;;;10480669;28;20783;-69
2023/09/04 10:34:27;;;;;;;4.78;3.75;;;21.10;94.10;;;;;;10483794;28;20564;-70
2023/09/04 10:39:28;;;;;;;4.00;3.60;;;21.30;94.50;;;;;;10478753;28;20419;-70
2023/09/04 10:44:47;;;;;;;5.53;4.10;;;21.30;93.80;;;;;;10481761;28;20808;-72
2023/09/04 10:49:48;;;;;;;7.53;4.00;;;21.40;94.00;;;;;;10477786;28;20883;-70
2023/09/04 10:55:13;;;;;;;6.10;3.90;;;21.50;94.10;;;;;;10480946;28;20464;-70
2023/09/04 11:00:29;;;;;;;4.10;3.70;;;21.50;93.50;;;;;;10478080;28;20430;-70
2023/09/04 11:05:29;;;;;;;5.00;3.75;;;21.60;93.90;;;;;;10480936;28;20403;-70
2023/09/04 11:10:35;;;;;;;6.47;3.80;;;21.60;93.60;;;;;;10478582;28;21125;-70
2023/09/04 11:15:36;;;;;;;4.90;3.80;;;21.70;93.60;;;;;;10476847;28;20953;-70
2023/09/04 11:20:45;;;;;;;4.77;3.57;;;21.90;93.40;;;;;;10480906;28;20492;-70
2023/09/04 11:25:46;;;;;;;5.38;3.67;;;22.00;92.80;;;;;;10485325;28;20403;-70
2023/09/04 11:30:47;;;;;;;5.40;3.43;;;22.10;92.60;;;;;;10490555;28;20410;-70
2023/09/04 11:35:57;;;;;;;4.30;3.47;;;22.20;92.40;;;;;;10489261;28;20430;-69
2023/09/04 11:40:58;;;;;;;4.35;3.90;;;22.30;92.40;;;;;;10480939;28;20862;-70
2023/09/04 11:45:59;;;;;;;4.73;3.50;;;22.40;91.90;;;;;;10486820;28;20490;-69
2023/09/04 11:51:00;;;;;;;4.22;3.35;;;22.60;92.20;;;;;;10484444;28;20399;-69
2023/09/04 11:56:03;;;;;;;5.28;3.35;;;22.70;91.90;;;;;;10488824;28;20406;-68
2023/09/04 12:01:03;;;;;;;3.17;2.80;;;22.80;91.80;;;;;;10487258;28;20782;-68
2023/09/04 12:06:04;;;;;;;5.17;2.90;;;22.90;91.60;;;;;;10490445;28;20407;-68
2023/09/04 12:11:06;;;;;;;3.97;3.00;;;22.90;91.20;;;;;;10483702;28;20779;-69
2023/09/04 12:16:07;;;;;;;4.38;2.85;;;23.10;91.20;;;;;;10483209;28;20399;-70
2023/09/04 12:21:09;;;;;;;3.85;2.70;;;23.10;90.80;;;;;;10486219;28;20461;-69
2023/09/04 12:26:13;;;;;;;4.45;2.80;;;23.30;90.70;;;;;;10474432;28;20813;-69
2023/09/04 12:31:17;;;;;;;2.88;2.58;;;23.40;91.20;;;;;;10486719;28;20403;-70
2023/09/04 12:36:21;;;;;;;5.25;2.70;;;23.50;90.60;;;;;;10490143;28;20422;-70
2023/09/04 12:41:22;;;;;;;3.33;2.50;;;23.60;90.60;;;;;;10487055;28;20452;-70
2023/09/04 12:46:22;;;;;;;3.08;2.55;;;23.70;90.00;;;;;;10482891;28;20492;-70
2023/09/04 12:51:25;;;;;;;3.67;2.58;;;23.70;89.20;;;;;;10481931;28;20423;-70
2023/09/04 12:56:25;;;;;;;2.70;2.20;;;23.70;89.40;;;;;;10479860;28;20912;-70
2023/09/04 13:01:26;;;;;;;3.30;2.47;;;23.70;89.70;;;;;;10493146;28;20403;-70
2023/09/04 13:06:30;;;;;;;3.00;2.40;;;23.70;89.00;;;;;;10483752;28;20494;-70
2023/09/04 13:11:31;;;;;;;2.57;2.17;;;24.10;89.30;;;;;;10480757;28;20391;-70
2023/09/04 13:16:33;;;;;;;3.05;2.20;;;24.30;89.80;;;;;;10487983;28;20480;-70
2023/09/04 13:21:34;;;;;;;2.38;2.10;;;23.90;89.30;;;;;;10484525;28;20762;-68
2023/09/04 13:26:35;;;;;;;3.00;2.03;;;24.00;87.60;;;;;;10481752;28;20414;-68
2023/09/04 13:31:35;;;;;;;2.37;2.17;;;24.00;88.10;;;;;;10484605;28;21450;-69
2023/09/04 13:36:36;;;;;;;3.20;2.30;;;24.10;88.30;;;;;;10486177;28;20535;-69
2023/09/04 13:41:36;;;;;;;2.43;2.00;;;24.20;88.60;;;;;;10482452;28;20406;-68
2023/09/04 13:46:37;;;;;;;2.57;2.00;;;24.30;87.30;;;;;;10487904;28;20414;-69
2023/09/04 13:51:38;;;;;;;3.63;2.00;;;24.40;87.20;;;;;;10486583;28;21037;-68
2023/09/04 13:56:38;;;;;;;4.13;2.00;;;24.40;88.80;;;;;;10483352;28;20411;-69
2023/09/04 14:01:39;;;;;;;2.97;2.05;;;24.50;85.80;;;;;;10484724;28;20418;-68
2023/09/04 14:06:40;;;;;;;4.93;2.00;;;24.60;84.80;;;;;;10488444;28;20777;-69
2023/09/04 14:11:41;;;;;;;2.28;1.70;;;24.70;83.80;;;;;;10485802;28;20398;-69
2023/09/04 14:16:41;;;;;;;2.85;1.90;;;24.70;83.30;;;;;;10486912;28;20444;-69
2023/09/04 14:21:42;;;;;;;4.23;2.00;;;24.80;83.20;;;;;;10488416;28;20958;-69
2023/09/04 14:26:43;;;;;;;3.40;1.97;;;24.80;82.80;;;;;;10478062;28;20425;-69
2023/09/04 14:31:45;;;;;;;2.73;1.87;;;24.70;84.80;;;;;;10486725;28;20927;-69
2023/09/04 14:36:46;;;;;;;2.92;2.00;;;24.70;85.40;;;;;;10484751;28;20403;-69
2023/09/04 14:41:46;;;;;;;4.50;1.97;;;24.70;84.40;;;;;;10485474;28;20414;-69
2023/09/04 14:46:47;;;;;;;3.60;2.00;;;24.70;85.50;;;;;;10479438;28;20427;-70
2023/09/04 14:51:48;;;;;;;2.10;1.90;;;24.70;85.70;;;;;;10483056;28;20428;-68
2023/09/04 14:56:48;;;;;;;2.67;1.80;;;24.70;84.20;;;;;;10482770;28;20412;-69
2023/09/04 15:01:49;;;;;;;3.33;2.87;;;24.70;85.40;;;;;;10495306;28;20408;-68
2023/09/04 15:06:50;;;;;;;2.77;2.30;;;24.80;84.90;;;;;;10490408;28;20520;-69
2023/09/04 15:11:50;;;;;;;3.35;2.50;;;25.00;86.60;;;;;;10494517;28;20423;-70
2023/09/04 15:16:51;;;;;;;2.78;2.20;;;25.00;84.40;;;;;;10494993;28;20418;-68
2023/09/04 15:21:51;;;;;;;3.27;2.00;;;25.00;84.20;;;;;;10487639;28;20502;-69
2023/09/04 15:26:52;;;;;;;3.20;2.40;;;25.00;84.30;;;;;;10496890;28;20908;-69
2023/09/04 15:31:53;;;;;;;2.80;2.37;;;25.00;83.90;;;;;;10492762;28;20654;-69
2023/09/04 15:36:53;;;;;;;2.70;1.93;;;24.90;82.20;;;;;;10496403;28;20514;-69
2023/09/04 15:41:54;;;;;;;2.38;1.88;;;24.90;83.70;;;;;;10493576;28;20481;-69
2023/09/04 15:46:54;;;;;;;4.68;2.28;;;24.80;83.80;;;;;;10497250;28;20422;-70
2023/09/04 15:51:55;;;;;;;2.93;1.90;;;24.80;84.20;;;;;;10498583;28;20948;-71
2023/09/04 15:57:02;;;;;;;3.13;1.80;;;24.70;83.80;;;;;;10497808;28;20407;-69
2023/09/04 16:02:03;;;;;;;2.53;1.75;;;24.60;83.30;;;;;;10496117;28;20777;-69
2023/09/04 16:07:04;;;;;;;2.55;2.03;;;24.50;83.80;;;;;;10497224;28;20413;-73
2023/09/04 16:12:05;;;;;;;2.42;1.77;;;24.50;85.80;;;;;;10487106;28;20899;-70
2023/09/04 16:17:06;;;;;;;2.92;1.90;;;24.40;86.50;;;;;;10499646;28;20409;-67
2023/09/04 16:22:06;;;;;;;2.53;2.10;;;24.40;85.60;;;;;;10494516;28;20806;-69
2023/09/04 16:27:08;;;;;;;2.70;2.13;;;24.30;86.00;;;;;;10487892;28;20934;-69
2023/09/04 16:32:09;;;;;;;2.97;2.03;;;24.20;86.70;;;;;;10482910;28;20403;-69
2023/09/04 16:37:09;;;;;;;2.92;1.98;;;24.10;87.60;;;;;;10485842;28;20437;-68
2023/09/04 16:42:10;;;;;;;6.30;2.20;;;24.10;87.40;;;;;;10492136;28;20399;-68
2023/09/04 16:47:11;;;;;;;3.70;2.30;;;24.10;88.70;;;;;;10497528;28;20636;-68
2023/09/04 16:52:12;;;;;;;2.83;2.10;;;24.10;89.90;;;;;;10493484;28;20490;-69
2023/09/04 16:57:12;;;;;;;3.47;2.28;;;24.10;90.40;;;;;;10488029;28;20407;-68
2023/09/04 17:02:16;;;;;;;4.20;2.55;;;24.10;90.40;;;;;;10490854;28;20403;-68
2023/09/04 17:07:16;;;;;;;3.80;2.73;;;24.00;90.60;;;;;;10494674;28;20461;-68
2023/09/04 17:12:17;;;;;;;3.65;2.50;;;24.00;91.00;;;;;;10484148;28;20479;-68
2023/09/04 17:17:17;;;;;;;4.22;3.00;;;24.00;91.80;;;;;;10492339;28;20411;-68
2023/09/04 17:22:18;;;;;;;4.30;3.07;;;23.90;92.60;;;;;;10486369;28;20461;-68
2023/09/04 17:27:19;;;;;;;4.17;2.77;;;23.70;92.90;;;;;;10484302;28;20626;-68
2023/09/04 17:32:19;;;;;;;3.33;2.70;;;23.60;93.40;;;;;;10491008;28;20450;-69
2023/09/04 17:37:20;;;;;;;5.30;3.00;;;23.60;93.70;;;;;;10483416;28;20457;-68
2023/09/04 17:42:20;;;;;;;4.43;2.57;;;23.50;94.10;;;;;;10489597;28;20756;-68
2023/09/04 17:47:21;;;;;;;4.07;2.80;;;23.40;94.00;;;;;;10493497;28;20403;-69
2023/09/04 17:52:22;;;;;;;3.50;2.40;;;23.30;94.10;;;;;;10490320;28;20481;-69
2023/09/04 17:57:23;;;;;;;3.47;2.50;;;23.10;94.30;;;;;;10487581;28;20414;-69
2023/09/04 18:02:23;;;;;;;4.53;2.50;;;23.10;94.40;;;;;;10491444;28;20396;-69
2023/09/04 18:07:24;;;;;;;4.97;2.90;;;22.90;94.40;;;;;;10485732;28;20603;-68
2023/09/04 18:12:24;;;;;;;3.87;2.70;;;22.80;94.60;;;;;;10488434;28;20427;-68
2023/09/04 18:17:25;;;;;;;3.58;2.60;;;22.80;94.60;;;;;;10482393;28;20433;-68
2023/09/04 18:22:26;;;;;;;3.00;2.45;;;22.80;94.50;;;;;;10484600;28;20401;-67
2023/09/04 18:27:28;;;;;;;4.10;2.70;;;22.90;94.30;;;;;;10490249;28;20398;-67
2023/09/04 18:32:28;;;;;;;3.75;2.70;;;23.00;94.20;;;;;;10486301;28;20407;-69
2023/09/04 18:37:29;;;;;;;5.47;3.70;;;23.00;94.00;;;;;;10487224;28;20816;-68
2023/09/04 18:42:29;;;;;;;3.37;2.70;;;23.00;94.00;;;;;;10489588;28;20425;-69
2023/09/04 18:47:30;;;;;;;8.97;3.10;;;23.00;93.80;;;;;;10496618;28;20504;-68
2023/09/04 18:52:32;;;;;;;3.13;2.70;;;23.00;93.80;;;;;;10491796;28;21644;-68
2023/09/04 18:57:33;;;;;;;4.28;2.92;;;23.10;93.70;;;;;;10497124;28;20489;-68
2023/09/04 19:02:34;;;;;;;3.63;3.00;;;23.10;93.70;;;;;;10488105;28;20407;-68
2023/09/04 19:07:35;;;;;;;3.53;2.80;;;23.10;93.60;;;;;;10488255;28;20786;-68
2023/09/04 19:12:35;;;;;;;4.63;3.07;;;23.00;93.50;;;;;;10487168;28;20409;-67
2023/09/04 19:17:36;;;;;;;3.77;3.00;;;23.10;93.50;;;;;;10493656;28;20437;-68
2023/09/04 19:22:40;;;;;;;3.50;2.80;;;23.00;93.50;;;;;;10496327;28;20408;-68
2023/09/04 19:27:40;;;;;;;4.00;3.47;;;22.90;93.60;;;;;;10496084;28;20414;-68
2023/09/04 19:32:42;;;;;;;4.10;3.50;;;22.90;93.60;;;;;;10488103;28;20406;-67
2023/09/04 19:37:42;;;;;;;5.63;3.42;;;22.90;93.50;;;;;;10487767;28;20654;-68
2023/09/04 19:42:44;;;;;;;4.57;3.27;;;22.90;93.50;;;;;;10491550;28;20474;-69
2023/09/04 19:47:45;;;;;;;3.63;3.25;;;22.90;93.40;;;;;;10495187;28;20416;-68
2023/09/04 19:52:46;;;;;;;4.03;3.50;;;22.90;93.40;;;;;;10502395;28;20415;-68
2023/09/04 19:57:46;;;;;;;4.57;3.53;;;22.80;93.40;;;;;;10496892;28;20468;-68
2023/09/04 20:02:47;;;;;;;4.28;3.88;;;22.80;93.40;;;;;;10487216;28;20754;-67
2023/09/04 20:07:47;;;;;;;4.95;4.00;;;22.80;93.40;;;;;;10488297;28;20399;-68
2023/09/04 20:12:48;;;;;;;5.43;4.22;;;22.70;93.20;;;;;;10483808;28;20403;-69
2023/09/04 20:17:49;;;;;;;5.05;3.88;;;22.60;93.30;;;;;;10488512;28;20415;-69
2023/09/04 20:22:49;;;;;;;4.00;3.60;;;22.60;93.20;;;;;;10487088;28;20415;-68
2023/09/04 20:27:50;;;;;;;4.95;4.00;;;22.60;93.20;;;;;;10492289;28;20430;-69
2023/09/04 20:32:54;;;;;;;5.22;4.07;;;22.60;93.10;;;;;;10499598;28;20783;-69
2023/09/04 20:37:55;;;;;;;4.93;4.13;;;22.50;93.10;;;;;;10492419;28;20415;-68
2023/09/04 20:42:55;;;;;;;4.87;3.97;;;22.50;93.10;;;;;;10479951;28;20410;-69
2023/09/04 20:47:56;;;;;;;5.10;4.30;;;22.50;93.10;;;;;;10472108;28;20779;-68
2023/09/04 20:52:57;;;;;;;4.97;3.93;;;22.40;93.10;;;;;;10483994;28;20814;-69
2023/09/04 20:57:57;;;;;;;5.20;4.15;;;22.40;93.10;;;;;;10484341;28;20511;-68
2023/09/04 21:02:58;;;;;;;5.20;3.85;;;22.40;93.10;;;;;;10476689;28;20413;-68
2023/09/04 23:26:06;;;;;;;4.75;4.13;;;21.60;92.60;;;;;;10502766;28;20399;-68
2023/09/04 23:31:07;;;;;;;4.33;3.87;;;21.50;92.60;;;;;;10482613;28;20459;-68
2023/09/04 23:46:37;;;;;;;4.75;3.80;;;21.50;92.60;;;;;;10496579;28;20604;-68
2023/09/04 23:51:38;;;;;;;5.70;3.80;;;21.50;92.60;;;;;;10485652;28;20413;-68
2023/09/04 23:56:39;;;;;;;4.47;3.83;;;21.40;92.50;;;;;;10491854;28;20435;-68
